Terminal Aerodrome Forecast
Issued by NWS Blacksburg, VA

Current Version | Previous Version | Text Only | Print | Product List | Glossary Off
Versions: 1 2 3 4 5 6 7 8 9 10 11 12 13 14 15 16 17 18 19 20 21 22

000
FTUS41 KRNK 252320
TAFBLF
TAF
KBLF 252320Z 2600/2624 16007KT P6SM FEW050 SCT200
     FM261100 16007KT P6SM SCT035 OVC040
     FM262200 17009KT 6SM -SHRA OVC040=

USA.gov is the U.S. government's official web portal to all federal, state and local government web resources and services.